createdAt,value
2023-04-02T00:00:10.594Z,6.10
2023-04-02T00:03:08.709Z,6.40
2023-04-02T00:05:55.047Z,6.40
2023-04-02T00:08:39.047Z,6.60
2023-04-02T00:11:09.216Z,8.90
2023-04-02T00:13:44.991Z,5.90
2023-04-02T00:16:19.437Z,7.20
2023-04-02T00:18:52.366Z,7.00
2023-04-02T00:21:29.760Z,6.00
2023-04-02T00:24:01.017Z,6.20
2023-04-02T00:26:36.772Z,9.90
2023-04-02T00:29:06.676Z,6.00
2023-04-02T00:31:40.401Z,6.40
2023-04-02T00:34:15.107Z,6.50
2023-04-02T00:36:44.317Z,6.60
2023-04-02T00:39:19.646Z,7.40
2023-04-02T00:41:48.950Z,7.00
2023-04-02T00:46:51.551Z,5.10
2023-04-02T00:52:05.093Z,5.80
2023-04-02T00:54:42.373Z,6.90
2023-04-02T00:57:26.157Z,6.60
2023-04-02T00:59:58.519Z,5.20
2023-04-02T01:02:35.868Z,5.70
2023-04-02T01:05:23.328Z,5.90
2023-04-02T01:08:23.299Z,6.30
2023-04-02T01:11:23.395Z,6.20
2023-04-02T01:14:04.533Z,6.40
2023-04-02T01:16:33.358Z,7.30
2023-04-02T01:19:28.630Z,7.70
2023-04-02T01:22:07.056Z,7.70
2023-04-02T01:24:37.489Z,7.60
2023-04-02T01:27:33.215Z,7.30
2023-04-02T01:30:03.540Z,6.50
2023-04-02T01:32:32.323Z,5.80
2023-04-02T01:35:01.416Z,5.90
2023-04-02T01:37:45.016Z,5.90
2023-04-02T01:40:31.340Z,6.20
2023-04-02T01:43:09.645Z,6.30
2023-04-02T01:45:37.961Z,6.00
2023-04-02T01:48:17.949Z,5.90
2023-04-02T01:50:49.949Z,5.60
2023-04-02T01:53:19.781Z,6.30
2023-04-02T01:55:57.137Z,6.00
2023-04-02T01:58:31.698Z,5.50
2023-04-02T02:01:20.121Z,7.10
2023-04-02T02:03:52.109Z,6.00
2023-04-02T02:06:20.747Z,6.80
2023-04-02T02:08:57.027Z,5.30
2023-04-02T02:11:29.407Z,6.80
2023-04-02T02:14:06.493Z,6.20
2023-04-02T02:16:42.111Z,5.80
2023-04-02T02:19:27.267Z,6.50
2023-04-02T02:22:03.336Z,6.50
2023-04-02T02:24:33.796Z,4.80
2023-04-02T02:27:14.467Z,5.10
2023-04-02T02:29:44.686Z,5.10
2023-04-02T02:32:14.786Z,9.00
2023-04-02T02:34:54.559Z,6.00
2023-04-02T02:37:31.237Z,7.40
2023-04-02T02:40:04.478Z,7.20
2023-04-02T02:42:42.118Z,8.10
2023-04-02T02:45:19.307Z,4.40
2023-04-02T02:47:49.844Z,5.30
2023-04-02T02:50:25.841Z,6.00
2023-04-02T02:52:58.055Z,5.80
2023-04-02T02:55:34.587Z,4.70
2023-04-02T02:58:19.509Z,6.70
2023-04-02T03:00:56.629Z,4.80
2023-04-02T03:03:29.543Z,5.00
2023-04-02T03:06:10.688Z,6.70
2023-04-02T03:08:53.684Z,5.30
2023-04-02T03:11:33.435Z,5.50
2023-04-02T03:14:14.789Z,4.80
2023-04-02T03:16:48.923Z,5.60
2023-04-02T03:19:42.167Z,5.50
2023-04-02T03:22:40.155Z,4.40
2023-04-02T03:25:30.949Z,7.80
2023-04-02T03:28:06.404Z,6.50
2023-04-02T03:30:43.122Z,6.50
2023-04-02T03:33:21.841Z,7.10
2023-04-02T03:36:04.014Z,8.80
2023-04-02T03:38:44.458Z,6.10
2023-04-02T03:41:21.475Z,7.20
2023-04-02T03:44:02.342Z,7.00
2023-04-02T03:46:39.832Z,7.00
2023-04-02T03:49:31.463Z,7.10
2023-04-02T03:52:08.107Z,7.40
2023-04-02T03:54:38.177Z,5.90
2023-04-02T03:57:22.272Z,5.50
2023-04-02T04:00:05.496Z,7.10
2023-04-02T04:02:52.313Z,7.30
2023-04-02T04:05:24.280Z,8.80
2023-04-02T04:08:01.251Z,5.60
2023-04-02T04:10:31.864Z,8.40
2023-04-02T04:13:09.818Z,5.70
2023-04-02T04:16:01.587Z,5.20
2023-04-02T04:18:38.032Z,7.40
2023-04-02T04:21:39.993Z,5.10
2023-04-02T04:24:39.390Z,5.60
2023-04-02T04:27:34.802Z,6.60
2023-04-02T04:30:14.955Z,5.90
2023-04-02T04:33:11.355Z,7.30
2023-04-02T04:35:46.591Z,6.20
2023-04-02T04:38:27.884Z,6.50
2023-04-02T04:41:19.689Z,5.10
2023-04-02T04:44:10.206Z,6.80
2023-04-02T04:47:23.400Z,7.80
2023-04-02T04:49:59.506Z,6.40
2023-04-02T04:52:34.637Z,6.60
2023-04-02T04:55:29.749Z,6.70
2023-04-02T04:58:17.167Z,8.10
2023-04-02T05:00:53.365Z,6.40
2023-04-02T05:04:06.808Z,6.50
2023-04-02T05:06:40.569Z,7.40
2023-04-02T05:09:51.844Z,6.40
2023-04-02T05:13:02.135Z,5.80
2023-04-02T05:15:42.261Z,7.70
2023-04-02T05:18:46.873Z,7.10
2023-04-02T05:21:50.650Z,6.70
2023-04-02T05:24:29.396Z,9.10
2023-04-02T05:27:03.654Z,7.40
2023-04-02T05:29:37.573Z,8.50
2023-04-02T05:32:14.946Z,8.60
2023-04-02T05:34:52.808Z,7.20
2023-04-02T05:37:24.715Z,7.50
2023-04-02T05:39:57.008Z,7.80
2023-04-02T05:42:31.063Z,8.80
2023-04-02T05:45:35.665Z,7.30
2023-04-02T05:48:21.535Z,7.00
2023-04-02T05:50:54.514Z,8.60
2023-04-02T05:53:41.479Z,8.30
2023-04-02T05:56:20.901Z,9.00
2023-04-02T05:58:55.029Z,7.90
2023-04-02T06:01:38.218Z,7.00
2023-04-02T06:04:35.765Z,7.70
2023-04-02T06:07:28.577Z,8.00
2023-04-02T06:10:30.487Z,8.00
2023-04-02T06:13:04.492Z,8.60
2023-04-02T06:15:38.708Z,11.20
2023-04-02T06:18:17.938Z,7.20
2023-04-02T06:20:46.662Z,8.20
2023-04-02T06:23:41.930Z,7.70
2023-04-02T06:26:27.226Z,7.90
2023-04-02T06:29:08.533Z,7.70
2023-04-02T06:31:50.842Z,7.70
2023-04-02T06:34:23.419Z,6.80
2023-04-02T06:36:59.990Z,8.30
2023-04-02T06:39:29.041Z,7.40
2023-04-02T06:42:22.519Z,6.50
2023-04-02T06:45:03.693Z,7.20
2023-04-02T06:47:50.596Z,6.60
2023-04-02T06:51:05.681Z,7.70
2023-04-02T06:53:41.276Z,9.20
2023-04-02T07:01:18.057Z,7.40
2023-04-02T07:03:46.520Z,8.60
2023-04-02T07:06:21.861Z,9.70
2023-04-02T07:08:51.874Z,8.60
2023-04-02T07:11:22.419Z,9.80
2023-04-02T07:13:52.922Z,7.90
2023-04-02T07:16:25.731Z,8.20
2023-04-02T07:18:55.981Z,8.80
2023-04-02T07:21:26.635Z,8.50
2023-04-02T07:23:55.665Z,8.00
2023-04-02T07:26:27.431Z,8.30
2023-04-02T07:28:56.533Z,8.40
2023-04-02T07:31:27.672Z,7.80
2023-04-02T07:34:00.326Z,7.80
2023-04-02T07:36:29.592Z,8.50
2023-04-02T07:38:57.675Z,10.80
2023-04-02T07:41:26.599Z,8.70
2023-04-02T07:43:54.747Z,7.50
2023-04-02T07:46:23.050Z,9.50
2023-04-02T07:48:51.260Z,7.50
2023-04-02T07:51:23.193Z,8.20
2023-04-02T07:53:56.157Z,7.30
2023-04-02T07:56:25.739Z,8.00
2023-04-02T07:58:54.853Z,8.90
2023-04-02T08:01:25.967Z,6.80
2023-04-02T08:03:56.168Z,9.80
2023-04-02T08:06:25.138Z,7.10
2023-04-02T08:08:56.060Z,8.40
2023-04-02T08:11:24.424Z,9.90
2023-04-02T08:13:52.445Z,9.20
2023-04-02T08:16:20.948Z,6.40
2023-04-02T08:18:49.372Z,9.10
2023-04-02T08:21:17.752Z,6.80
2023-04-02T08:23:46.016Z,9.10
2023-04-02T08:26:18.909Z,7.00
2023-04-02T08:28:47.284Z,8.80
2023-04-02T08:31:15.480Z,7.10
2023-04-02T08:33:43.670Z,7.40
2023-04-02T08:36:19.428Z,11.20
2023-04-02T08:38:47.643Z,8.20
2023-04-02T08:41:23.313Z,7.50
2023-04-02T08:44:24.560Z,7.00
2023-04-02T08:47:04.106Z,9.60
2023-04-02T08:49:44.927Z,8.60
2023-04-02T08:52:28.836Z,7.30
2023-04-02T08:54:58.230Z,8.00
2023-04-02T08:57:59.059Z,7.10
2023-04-02T09:00:41.880Z,7.90
2023-04-02T09:03:17.731Z,8.00
2023-04-02T09:05:47.581Z,8.30
2023-04-02T09:08:24.580Z,7.70
2023-04-02T09:11:05.698Z,6.70
2023-04-02T09:13:37.783Z,7.90
2023-04-02T09:16:11.251Z,6.80
2023-04-02T09:18:40.053Z,8.80
2023-04-02T09:21:35.060Z,6.80
2023-04-02T09:24:05.223Z,7.60
2023-04-02T09:26:34.486Z,5.00
2023-04-02T09:29:05.526Z,6.70
2023-04-02T09:31:40.842Z,6.60
2023-04-02T09:34:32.537Z,8.30
2023-04-02T09:37:17.053Z,6.60
2023-04-02T09:39:46.128Z,6.20
2023-04-02T09:42:41.055Z,8.70
2023-04-02T09:45:25.709Z,7.80
2023-04-02T09:47:55.791Z,6.30
2023-04-02T09:50:23.915Z,6.00
2023-04-02T09:52:51.924Z,5.50
2023-04-02T09:55:22.616Z,5.90
2023-04-02T09:57:52.226Z,9.00
2023-04-02T10:03:17.969Z,6.40
2023-04-02T10:05:47.120Z,5.80
2023-04-02T10:08:20.593Z,5.50
2023-04-02T10:10:53.039Z,6.00
2023-04-02T10:13:40.633Z,8.80
2023-04-02T10:16:21.495Z,7.30
2023-04-02T10:19:14.988Z,7.70
2023-04-02T10:21:46.232Z,7.50
2023-04-02T10:24:16.276Z,6.20
2023-04-02T10:27:09.842Z,8.60
2023-04-02T10:29:48.550Z,5.90
2023-04-02T10:32:23.895Z,6.90
2023-04-02T10:35:03.623Z,6.30
2023-04-02T10:37:49.837Z,7.50
2023-04-02T10:40:33.374Z,5.80
2023-04-02T10:43:14.160Z,8.70
2023-04-02T10:45:54.625Z,7.20
2023-04-02T10:48:52.089Z,6.70
2023-04-02T10:52:03.527Z,6.40
2023-04-02T10:54:49.835Z,6.30
2023-04-02T10:57:36.900Z,6.00
2023-04-02T11:00:16.671Z,6.00
2023-04-02T11:02:54.231Z,5.70
2023-04-02T11:05:47.872Z,6.40
2023-04-02T11:08:22.583Z,6.10
2023-04-02T11:11:14.123Z,6.20
2023-04-02T11:13:52.929Z,6.00
2023-04-02T11:16:22.158Z,7.70
2023-04-02T11:19:15.695Z,5.00
2023-04-02T11:21:57.181Z,6.40
2023-04-02T11:24:30.478Z,4.30
2023-04-02T11:27:23.725Z,6.30
2023-04-02T11:29:54.796Z,6.70
2023-04-02T11:32:27.765Z,5.80
2023-04-02T11:35:06.547Z,5.80
2023-04-02T11:37:45.241Z,6.40
2023-04-02T11:40:16.269Z,8.20
2023-04-02T11:42:46.480Z,4.80
2023-04-02T11:45:21.415Z,5.20
2023-04-02T11:48:01.800Z,6.90
2023-04-02T11:50:39.520Z,9.20
2023-04-02T11:53:10.902Z,13.60
2023-04-02T11:55:41.777Z,6.60
2023-04-02T11:58:32.559Z,5.60
2023-04-02T12:01:11.894Z,5.10
2023-04-02T12:04:01.520Z,6.70
2023-04-02T12:06:47.590Z,5.10
2023-04-02T12:09:25.490Z,5.00
2023-04-02T12:12:00.357Z,4.10
2023-04-02T12:14:36.971Z,4.10
2023-04-02T12:17:18.511Z,6.40
2023-04-02T12:19:50.035Z,5.20
2023-04-02T12:22:25.156Z,5.90
2023-04-02T12:24:57.233Z,4.00
2023-04-02T12:27:28.210Z,4.60
2023-04-02T12:30:13.843Z,4.80
2023-04-02T12:32:45.519Z,5.50
2023-04-02T12:35:36.077Z,5.90
2023-04-02T12:38:04.283Z,5.30
2023-04-02T12:40:32.344Z,5.60
2023-04-02T12:43:00.641Z,5.70
2023-04-02T12:45:33.727Z,6.30
2023-04-02T12:48:05.511Z,5.20
2023-04-02T12:50:34.977Z,4.50
2023-04-02T12:53:03.658Z,3.70
2023-04-02T12:55:33.660Z,4.80
2023-04-02T12:58:01.977Z,5.10
2023-04-02T13:00:32.210Z,3.30
2023-04-02T13:03:01.216Z,4.80
2023-04-02T13:08:31.311Z,4.70
2023-04-02T13:11:05.034Z,4.70
2023-04-02T13:13:35.956Z,4.40
2023-04-02T13:16:10.013Z,5.30
2023-04-02T13:18:38.849Z,4.70
2023-04-02T13:21:28.124Z,4.80
2023-04-02T13:23:59.603Z,4.80
2023-04-02T13:26:29.500Z,4.00
2023-04-02T13:28:59.012Z,6.00
2023-04-02T13:31:33.866Z,5.40
2023-04-02T13:34:02.430Z,6.20
2023-04-02T13:36:30.766Z,4.60
2023-04-02T13:38:58.869Z,4.90
2023-04-02T13:41:32.432Z,4.00
2023-04-02T13:44:04.975Z,5.00
2023-04-02T13:46:35.369Z,4.60
2023-04-02T13:49:03.513Z,4.00
2023-04-02T13:51:38.921Z,5.30
2023-04-02T13:54:14.957Z,4.00
2023-04-02T13:56:43.152Z,5.90
2023-04-02T13:59:11.610Z,5.60
2023-04-02T14:01:41.575Z,5.10
2023-04-02T14:04:13.791Z,4.90
2023-04-02T14:07:16.172Z,5.60
2023-04-02T14:09:54.206Z,5.00
2023-04-02T14:12:50.036Z,5.80
2023-04-02T14:15:39.772Z,5.20
2023-04-02T14:18:25.460Z,4.30
2023-04-02T14:21:11.762Z,6.20
2023-04-02T14:23:52.630Z,6.30
2023-04-02T14:26:41.391Z,7.30
2023-04-02T14:29:15.398Z,7.00
2023-04-02T14:31:55.697Z,5.20
2023-04-02T14:34:52.810Z,6.50
2023-04-02T14:37:23.649Z,7.10
2023-04-02T14:40:25.821Z,6.10
2023-04-02T14:43:06.387Z,5.00
2023-04-02T14:45:34.809Z,4.90
2023-04-02T14:48:27.031Z,5.50
2023-04-02T14:51:14.791Z,4.70
2023-04-02T14:54:02.984Z,7.10
2023-04-02T14:56:36.520Z,5.90
2023-04-02T14:59:25.521Z,5.00
2023-04-02T15:04:37.440Z,6.10
2023-04-02T15:07:16.466Z,5.30
2023-04-02T15:12:25.928Z,5.30
2023-04-02T15:15:01.064Z,4.90
2023-04-02T15:17:29.477Z,5.40
2023-04-02T15:20:12.785Z,5.10
2023-04-02T15:23:11.153Z,4.10
2023-04-02T15:26:01.664Z,6.10
2023-04-02T15:28:51.850Z,5.20
2023-04-02T15:31:25.173Z,4.90
2023-04-02T15:34:09.498Z,4.90
2023-04-02T15:36:45.665Z,5.20
2023-04-02T15:39:31.612Z,6.30
2023-04-02T15:42:13.443Z,5.50
2023-04-02T15:45:11.526Z,5.90
2023-04-02T15:47:53.193Z,5.20
2023-04-02T15:50:34.333Z,6.20
2023-04-02T15:53:33.636Z,5.30
2023-04-02T15:56:34.435Z,6.70
2023-04-02T15:59:24.216Z,5.50
2023-04-02T16:02:25.950Z,5.20
2023-04-02T16:05:13.405Z,5.10
2023-04-02T16:08:13.531Z,4.70
2023-04-02T16:10:43.225Z,6.10
2023-04-02T16:13:31.255Z,6.90
2023-04-02T16:16:25.975Z,5.90
2023-04-02T16:19:02.258Z,8.00
2023-04-02T16:21:41.886Z,6.80
2023-04-02T16:24:23.723Z,8.20
2023-04-02T16:26:57.589Z,8.70
2023-04-02T16:29:57.206Z,9.60
2023-04-02T16:32:36.045Z,6.50
2023-04-02T16:38:07.912Z,6.90
2023-04-02T16:41:08.396Z,6.20
2023-04-02T16:44:05.904Z,6.70
2023-04-02T16:46:41.319Z,6.30
2023-04-02T16:50:06.251Z,7.40
2023-04-02T16:52:36.844Z,5.10
2023-04-02T16:55:19.812Z,5.90
2023-04-02T16:58:01.087Z,5.90
2023-04-02T17:00:44.102Z,6.30
2023-04-02T17:03:19.232Z,5.50
2023-04-02T17:05:52.255Z,5.40
2023-04-02T17:08:24.401Z,7.20
2023-04-02T17:11:06.909Z,6.70
2023-04-02T17:14:06.418Z,6.50
2023-04-02T17:16:46.471Z,6.60
2023-04-02T17:19:16.692Z,5.90
2023-04-02T17:21:48.564Z,6.60
2023-04-02T17:24:23.280Z,7.30
2023-04-02T17:27:03.861Z,7.80
2023-04-02T17:29:40.996Z,5.90
2023-04-02T17:32:23.132Z,6.80
2023-04-02T17:34:51.135Z,5.30
2023-04-02T17:37:33.541Z,3.90
2023-04-02T17:40:48.789Z,4.30
2023-04-02T17:43:38.775Z,5.90
2023-04-02T17:46:34.696Z,7.30
2023-04-02T17:49:12.909Z,4.70
2023-04-02T17:52:07.300Z,5.70
2023-04-02T17:54:53.597Z,8.10
2023-04-02T17:57:39.959Z,4.40
2023-04-02T18:00:45.757Z,6.20
2023-04-02T18:03:36.901Z,5.50
2023-04-02T18:06:46.366Z,5.20
2023-04-02T18:09:42.750Z,4.30
2023-04-02T18:12:13.585Z,5.40
2023-04-02T18:15:01.344Z,5.20
2023-04-02T18:17:51.431Z,3.50
2023-04-02T18:20:28.389Z,4.20
2023-04-02T18:23:12.217Z,4.00
2023-04-02T18:25:56.842Z,5.10
2023-04-02T18:28:47.447Z,4.90
2023-04-02T18:31:47.458Z,4.10
2023-04-02T18:34:23.985Z,2.80
2023-04-02T18:37:00.970Z,2.20
2023-04-02T18:39:44.289Z,3.00
2023-04-02T18:42:41.449Z,2.50
2023-04-02T18:45:25.953Z,4.70
2023-04-02T18:48:09.317Z,2.50
2023-04-02T18:50:40.931Z,2.50
2023-04-02T18:53:31.425Z,2.10
2023-04-02T18:56:14.918Z,2.70
2023-04-02T18:58:57.038Z,2.10
2023-04-02T19:01:58.648Z,1.40
2023-04-02T19:04:30.867Z,1.10
2023-04-02T19:07:14.303Z,1.10
2023-04-02T19:09:48.418Z,3.20
2023-04-02T19:12:22.343Z,3.00
2023-04-02T19:14:52.523Z,5.50
2023-04-02T19:17:41.924Z,4.00
2023-04-02T19:20:47.058Z,5.30
2023-04-02T19:23:37.746Z,5.00
2023-04-02T19:26:19.531Z,4.60
2023-04-02T19:29:11.012Z,6.80
2023-04-02T19:31:55.117Z,5.30
2023-04-02T19:34:38.945Z,4.20
2023-04-02T19:37:22.130Z,5.40
2023-04-02T19:40:15.289Z,5.70
2023-04-02T19:42:49.453Z,6.30
2023-04-02T19:45:32.944Z,5.10
2023-04-02T19:48:10.207Z,6.40
2023-04-02T19:50:38.545Z,8.10
2023-04-02T19:53:07.027Z,10.10
2023-04-02T19:55:35.974Z,7.60
2023-04-02T19:58:17.296Z,8.50
2023-04-02T20:00:47.475Z,6.60
2023-04-02T20:03:15.618Z,8.90
2023-04-02T20:05:43.821Z,7.40
2023-04-02T20:08:12.370Z,7.10
2023-04-02T20:10:42.163Z,5.70
2023-04-02T20:13:10.656Z,6.30
2023-04-02T20:15:41.786Z,5.70
2023-04-02T20:18:11.129Z,6.20
2023-04-02T20:23:07.866Z,5.90
2023-04-02T20:25:36.029Z,5.40
2023-04-02T20:28:04.515Z,5.90
2023-04-02T20:30:33.039Z,6.30
2023-04-02T20:33:01.715Z,5.60
2023-04-02T20:35:34.716Z,7.10
2023-04-02T20:38:03.680Z,5.40
2023-04-02T20:40:32.646Z,5.90
2023-04-02T20:43:00.830Z,5.40
2023-04-02T20:45:39.137Z,5.30
2023-04-02T20:48:07.885Z,7.50
2023-04-02T20:50:36.336Z,5.90
2023-04-02T20:53:04.544Z,5.00
2023-04-02T20:55:33.103Z,6.30
2023-04-02T20:58:03.454Z,5.40
2023-04-02T21:00:31.465Z,5.20
2023-04-02T21:03:00.481Z,7.10
2023-04-02T21:05:31.459Z,5.10
2023-04-02T21:08:01.008Z,4.70
2023-04-02T21:10:29.079Z,5.00
2023-04-02T21:12:57.358Z,6.10
2023-04-02T21:15:25.646Z,5.00
2023-04-02T21:17:54.344Z,5.30
2023-04-02T21:20:22.559Z,3.70
2023-04-02T21:22:50.665Z,3.50
2023-04-02T21:25:18.805Z,7.10
2023-04-02T21:27:46.804Z,5.00
2023-04-02T21:30:15.082Z,3.60
2023-04-02T21:32:43.293Z,5.50
2023-04-02T21:35:12.191Z,5.30
2023-04-02T21:37:48.702Z,4.10
2023-04-02T21:40:16.922Z,5.20
2023-04-02T21:42:45.678Z,3.90
2023-04-02T21:45:13.751Z,4.70
2023-04-02T21:47:41.955Z,4.30
2023-04-02T21:50:10.936Z,7.30
2023-04-02T21:52:38.855Z,4.50
2023-04-02T21:55:07.373Z,4.60
2023-04-02T21:57:35.491Z,5.00
2023-04-02T22:00:08.452Z,4.50
2023-04-02T22:02:36.533Z,5.70
2023-04-02T22:05:05.125Z,5.40
2023-04-02T22:07:33.180Z,4.70
2023-04-02T22:10:01.147Z,4.40
2023-04-02T22:12:29.235Z,5.20
2023-04-02T22:14:57.274Z,5.50
2023-04-02T22:17:25.425Z,5.80
2023-04-02T22:19:53.521Z,5.90
2023-04-02T22:22:21.660Z,4.70
2023-04-02T22:24:49.647Z,6.10
2023-04-02T22:27:17.605Z,5.00
2023-04-02T22:29:45.807Z,5.70
2023-04-02T22:32:14.204Z,6.30
2023-04-02T22:34:45.828Z,4.50
2023-04-02T22:37:13.820Z,4.30
2023-04-02T22:39:42.088Z,3.70
2023-04-02T22:42:10.877Z,4.40
2023-04-02T22:44:38.849Z,5.70
2023-04-02T22:47:07.122Z,4.90
2023-04-02T22:49:35.190Z,5.50
2023-04-02T22:52:06.149Z,5.10
2023-04-02T22:54:34.090Z,5.60
2023-04-02T22:57:02.411Z,4.60
2023-04-02T22:59:30.551Z,5.30
2023-04-02T23:01:58.791Z,6.20
2023-04-02T23:04:27.053Z,5.80
2023-04-02T23:06:55.895Z,5.20
2023-04-02T23:09:23.970Z,5.60
2023-04-02T23:11:52.466Z,6.60
2023-04-02T23:14:21.471Z,7.00
2023-04-02T23:16:49.623Z,7.60
2023-04-02T23:19:17.690Z,7.90
2023-04-02T23:21:46.441Z,10.30
2023-04-02T23:24:15.597Z,8.90
2023-04-02T23:26:43.852Z,9.10
2023-04-02T23:29:12.010Z,9.50
2023-04-02T23:31:40.083Z,11.00
2023-04-02T23:34:09.768Z,10.70
2023-04-02T23:36:37.884Z,9.80
2023-04-02T23:39:12.435Z,10.20
2023-04-02T23:41:42.924Z,9.60
2023-04-02T23:44:11.118Z,10.30
2023-04-02T23:46:39.435Z,10.70
2023-04-02T23:49:11.412Z,9.60
2023-04-02T23:51:41.114Z,9.00
2023-04-02T23:54:12.634Z,9.50
2023-04-02T23:56:41.914Z,8.70
2023-04-02T23:59:09.943Z,6.70
